sensor_id;sensor_type;location;lat;lon;timestamp;pressure;altitude;pressure_sealevel;temperature;humidity
76694;BME280;69667;52.136;5.424;2024-02-04T00:01:43;102405.56;;;9.76;100.00
76694;BME280;69667;52.136;5.424;2024-02-04T00:04:12;102414.59;;;9.75;100.00
76694;BME280;69667;52.136;5.424;2024-02-04T00:06:40;102415.47;;;9.75;100.00
76694;BME280;69667;52.136;5.424;2024-02-04T00:09:08;102417.34;;;9.73;100.00
76694;BME280;69667;52.136;5.424;2024-02-04T00:11:37;102425.53;;;9.72;100.00
76694;BME280;69667;52.136;5.424;2024-02-04T00:14:05;102432.72;;;9.71;100.00
76694;BME280;69667;52.136;5.424;2024-02-04T00:16:33;102421.22;;;9.68;100.00
76694;BME280;69667;52.136;5.424;2024-02-04T00:19:01;102410.50;;;9.66;100.00
76694;BME280;69667;52.136;5.424;2024-02-04T00:21:30;102397.09;;;9.65;100.00
76694;BME280;69667;52.136;5.424;2024-02-04T00:23:58;102412.47;;;9.63;100.00
76694;BME280;69667;52.136;5.424;2024-02-04T00:26:27;102417.94;;;9.61;100.00
76694;BME280;69667;52.136;5.424;2024-02-04T00:28:55;102412.59;;;9.60;100.00
76694;BME280;69667;52.136;5.424;2024-02-04T00:31:23;102424.34;;;9.59;100.00
76694;BME280;69667;52.136;5.424;2024-02-04T00:33:51;102418.13;;;9.57;100.00
76694;BME280;69667;52.136;5.424;2024-02-04T00:36:20;102425.38;;;9.56;100.00
76694;BME280;69667;52.136;5.424;2024-02-04T00:38:49;102420.03;;;9.55;100.00
76694;BME280;69667;52.136;5.424;2024-02-04T00:41:17;102421.88;;;9.54;100.00
76694;BME280;69667;52.136;5.424;2024-02-04T00:43:45;102410.28;;;9.52;100.00
76694;BME280;69667;52.136;5.424;2024-02-04T00:46:14;102408.53;;;9.51;100.00
76694;BME280;69667;52.136;5.424;2024-02-04T00:48:42;102406.75;;;9.50;100.00
76694;BME280;69667;52.136;5.424;2024-02-04T00:51:10;102407.72;;;9.49;100.00
76694;BME280;69667;52.136;5.424;2024-02-04T00:53:40;102407.72;;;9.49;100.00
76694;BME280;69667;52.136;5.424;2024-02-04T00:56:09;102397.94;;;9.47;100.00
76694;BME280;69667;52.136;5.424;2024-02-04T00:58:39;102410.56;;;9.46;100.00
76694;BME280;69667;52.136;5.424;2024-02-04T01:01:07;102398.09;;;9.44;100.00
76694;BME280;69667;52.136;5.424;2024-02-04T01:03:36;102394.50;;;9.43;100.00
76694;BME280;69667;52.136;5.424;2024-02-04T01:06:05;102398.22;;;9.41;100.00
76694;BME280;69667;52.136;5.424;2024-02-04T01:08:33;102396.44;;;9.41;100.00
76694;BME280;69667;52.136;5.424;2024-02-04T01:11:02;102394.66;;;9.40;100.00
76694;BME280;69667;52.136;5.424;2024-02-04T01:13:30;102401.81;;;9.41;100.00
76694;BME280;69667;52.136;5.424;2024-02-04T01:15:58;102395.53;;;9.41;100.00
76694;BME280;69667;52.136;5.424;2024-02-04T01:18:27;102383.13;;;9.37;100.00
76694;BME280;69667;52.136;5.424;2024-02-04T01:20:55;102373.31;;;9.36;100.00
76694;BME280;69667;52.136;5.424;2024-02-04T01:23:23;102379.63;;;9.35;100.00
76694;BME280;69667;52.136;5.424;2024-02-04T01:25:52;102383.34;;;9.32;100.00
76694;BME280;69667;52.136;5.424;2024-02-04T01:28:20;102393.19;;;9.33;100.00
76694;BME280;69667;52.136;5.424;2024-02-04T01:30:48;102380.59;;;9.34;100.00
76694;BME280;69667;52.136;5.424;2024-02-04T01:33:16;102393.19;;;9.33;100.00
76694;BME280;69667;52.136;5.424;2024-02-04T01:35:45;102404.84;;;9.34;100.00
76694;BME280;69667;52.136;5.424;2024-02-04T01:38:13;102398.56;;;9.33;100.00
76694;BME280;69667;52.136;5.424;2024-02-04T01:40:41;102392.50;;;9.28;100.00
76694;BME280;69667;52.136;5.424;2024-02-04T01:43:10;102404.53;;;9.21;100.00
76694;BME280;69667;52.136;5.424;2024-02-04T01:45:38;102401.16;;;9.16;100.00
76694;BME280;69667;52.136;5.424;2024-02-04T01:48:06;102394.91;;;9.16;100.00
76694;BME280;69667;52.136;5.424;2024-02-04T01:50:35;102390.41;;;9.16;100.00
76694;BME280;69667;52.136;5.424;2024-02-04T01:53:03;102392.13;;;9.17;100.00
76694;BME280;69667;52.136;5.424;2024-02-04T01:55:31;102397.50;;;9.17;100.00
76694;BME280;69667;52.136;5.424;2024-02-04T01:58:01;102394.91;;;9.16;100.00
76694;BME280;69667;52.136;5.424;2024-02-04T02:00:29;102395.78;;;9.16;100.00
76694;BME280;69667;52.136;5.424;2024-02-04T02:02:59;102396.78;;;9.14;100.00
76694;BME280;69667;52.136;5.424;2024-02-04T02:05:28;102400.34;;;9.14;100.00
76694;BME280;69667;52.136;5.424;2024-02-04T02:07:57;102402.16;;;9.14;100.00
76694;BME280;69667;52.136;5.424;2024-02-04T02:10:25;102406.66;;;9.13;100.00
76694;BME280;69667;52.136;5.424;2024-02-04T02:13:00;102414.81;;;9.12;100.00
76694;BME280;69667;52.136;5.424;2024-02-04T02:15:40;102413.00;;;9.12;100.00
76694;BME280;69667;52.136;5.424;2024-02-04T02:18:26;102423.84;;;9.11;100.00
76694;BME280;69667;52.136;5.424;2024-02-04T02:21:30;102413.06;;;9.11;100.00
76694;BME280;69667;52.136;5.424;2024-02-04T02:24:32;102402.38;;;9.09;100.00
76694;BME280;69667;52.136;5.424;2024-02-04T02:26:59;102390.84;;;9.06;100.00
76694;BME280;69667;52.136;5.424;2024-02-04T02:29:27;102393.63;;;9.04;100.00
76694;BME280;69667;52.136;5.424;2024-02-04T02:31:56;102381.16;;;9.02;100.00
76694;BME280;69667;52.136;5.424;2024-02-04T02:34:25;102382.25;;;8.98;100.00
76694;BME280;69667;52.136;5.424;2024-02-04T02:37:27;102388.84;;;8.90;100.00
76694;BME280;69667;52.136;5.424;2024-02-04T02:42:57;102380.16;;;8.84;100.00
76694;BME280;69667;52.136;5.424;2024-02-04T02:45:28;102391.84;;;8.83;100.00
76694;BME280;69667;52.136;5.424;2024-02-04T02:47:59;102385.69;;;8.81;100.00
76694;BME280;69667;52.136;5.424;2024-02-04T02:50:28;102383.09;;;8.78;100.00
76694;BME280;69667;52.136;5.424;2024-02-04T02:52:56;102396.53;;;8.79;100.00
76694;BME280;69667;52.136;5.424;2024-02-04T02:55:24;102398.25;;;8.80;100.00
76694;BME280;69667;52.136;5.424;2024-02-04T02:57:53;102400.00;;;8.81;100.00
76694;BME280;69667;52.136;5.424;2024-02-04T03:00:21;102385.69;;;8.81;100.00
76694;BME280;69667;52.136;5.424;2024-02-04T03:02:49;102395.50;;;8.82;100.00
76694;BME280;69667;52.136;5.424;2024-02-04T03:05:18;102378.38;;;8.83;100.00
76694;BME280;69667;52.136;5.424;2024-02-04T03:07:46;102385.53;;;8.84;100.00
76694;BME280;69667;52.136;5.424;2024-02-04T03:10:15;102380.97;;;8.86;100.00
76694;BME280;69667;52.136;5.424;2024-02-04T03:12:43;102393.63;;;8.84;100.00
76694;BME280;69667;52.136;5.424;2024-02-04T03:15:11;102396.31;;;8.84;100.00
76694;BME280;69667;52.136;5.424;2024-02-04T03:17:40;102387.34;;;8.83;100.00
76694;BME280;69667;52.136;5.424;2024-02-04T03:20:09;102399.88;;;8.84;100.00
76694;BME280;69667;52.136;5.424;2024-02-04T03:22:37;102389.28;;;8.80;100.00
76694;BME280;69667;52.136;5.424;2024-02-04T03:25:06;102384.13;;;8.75;100.00
76694;BME280;69667;52.136;5.424;2024-02-04T03:27:34;102387.03;;;8.71;100.00
76694;BME280;69667;52.136;5.424;2024-02-04T03:30:03;102387.09;;;8.69;100.00
76694;BME280;69667;52.136;5.424;2024-02-04T03:32:31;102392.47;;;8.69;100.00
76694;BME280;69667;52.136;5.424;2024-02-04T03:35:02;102384.50;;;8.66;100.00
76694;BME280;69667;52.136;5.424;2024-02-04T03:37:32;102381.03;;;8.64;100.00
76694;BME280;69667;52.136;5.424;2024-02-04T03:40:00;102381.19;;;8.60;100.00
76694;BME280;69667;52.136;5.424;2024-02-04T03:42:29;102381.34;;;8.57;100.00
76694;BME280;69667;52.136;5.424;2024-02-04T03:44:58;102386.09;;;8.50;100.00
76694;BME280;69667;52.136;5.424;2024-02-04T03:47:26;102388.88;;;8.49;100.00
76694;BME280;69667;52.136;5.424;2024-02-04T03:49:54;102384.47;;;8.46;100.00
76694;BME280;69667;52.136;5.424;2024-02-04T03:52:23;102390.13;;;8.40;100.00
76694;BME280;69667;52.136;5.424;2024-02-04T03:54:51;102401.94;;;8.36;100.00
76694;BME280;69667;52.136;5.424;2024-02-04T03:57:20;102400.19;;;8.35;100.00
76694;BME280;69667;52.136;5.424;2024-02-04T03:59:48;102403.91;;;8.33;100.00
76694;BME280;69667;52.136;5.424;2024-02-04T04:02:16;102402.25;;;8.29;100.00
76694;BME280;69667;52.136;5.424;2024-02-04T04:04:44;102388.94;;;8.26;100.00
76694;BME280;69667;52.136;5.424;2024-02-04T04:07:16;102388.00;;;8.27;100.00
76694;BME280;69667;52.136;5.424;2024-02-04T04:09:44;102395.41;;;8.20;100.00
76694;BME280;69667;52.136;5.424;2024-02-04T04:12:12;102391.81;;;8.20;100.00
76694;BME280;69667;52.136;5.424;2024-02-04T04:14:41;102388.16;;;8.22;100.00
76694;BME280;69667;52.136;5.424;2024-02-04T04:17:09;102382.84;;;8.21;100.00
76694;BME280;69667;52.136;5.424;2024-02-04T04:19:39;102377.47;;;8.21;100.00
76694;BME280;69667;52.136;5.424;2024-02-04T04:22:07;102369.41;;;8.21;100.00
76694;BME280;69667;52.136;5.424;2024-02-04T04:24:37;102373.81;;;8.22;100.00
76694;BME280;69667;52.136;5.424;2024-02-04T04:27:06;102371.03;;;8.25;100.00
76694;BME280;69667;52.136;5.424;2024-02-04T04:29:34;102380.75;;;8.29;100.00
76694;BME280;69667;52.136;5.424;2024-02-04T04:32:02;102379.72;;;8.31;100.00
76694;BME280;69667;52.136;5.424;2024-02-04T04:34:30;102376.03;;;8.34;100.00
76694;BME280;69667;52.136;5.424;2024-02-04T04:36:59;102374.31;;;8.33;100.00
76694;BME280;69667;52.136;5.424;2024-02-04T04:39:27;102369.84;;;8.32;100.00
76694;BME280;69667;52.136;5.424;2024-02-04T04:41:56;102369.91;;;8.30;100.00
76694;BME280;69667;52.136;5.424;2024-02-04T04:44:24;102367.28;;;8.29;100.00
76694;BME280;69667;52.136;5.424;2024-02-04T04:46:52;102375.28;;;8.30;100.00
76694;BME280;69667;52.136;5.424;2024-02-04T04:49:20;102358.28;;;8.30;100.00
76694;BME280;69667;52.136;5.424;2024-02-04T04:51:49;102349.34;;;8.29;100.00
76694;BME280;69667;52.136;5.424;2024-02-04T04:54:17;102356.47;;;8.30;100.00
76694;BME280;69667;52.136;5.424;2024-02-04T04:56:45;102352.09;;;8.28;100.00
76694;BME280;69667;52.136;5.424;2024-02-04T04:59:15;102338.69;;;8.26;100.00
76694;BME280;69667;52.136;5.424;2024-02-04T05:01:47;102338.69;;;8.26;100.00
76694;BME280;69667;52.136;5.424;2024-02-04T05:04:16;102342.25;;;8.27;100.00
76694;BME280;69667;52.136;5.424;2024-02-04T05:06:51;102332.53;;;8.24;100.00
76694;BME280;69667;52.136;5.424;2024-02-04T05:09:20;102341.38;;;8.26;100.00
76694;BME280;69667;52.136;5.424;2024-02-04T05:11:48;102337.91;;;8.24;100.00
76694;BME280;69667;52.136;5.424;2024-02-04T05:14:16;102337.94;;;8.23;100.00
76694;BME280;69667;52.136;5.424;2024-02-04T05:16:44;102342.41;;;8.24;100.00
76694;BME280;69667;52.136;5.424;2024-02-04T05:19:13;102337.13;;;8.21;100.00
76694;BME280;69667;52.136;5.424;2024-02-04T05:21:42;102343.34;;;8.21;100.00
76694;BME280;69667;52.136;5.424;2024-02-04T05:24:10;102338.03;;;8.20;100.00
76694;BME280;69667;52.136;5.424;2024-02-04T05:26:38;102341.69;;;8.19;100.00
76694;BME280;69667;52.136;5.424;2024-02-04T05:29:07;102344.38;;;8.19;100.00
76694;BME280;69667;52.136;5.424;2024-02-04T05:31:43;102348.78;;;8.20;100.00
76694;BME280;69667;52.136;5.424;2024-02-04T05:34:11;102331.75;;;8.21;100.00
76694;BME280;69667;52.136;5.424;2024-02-04T05:36:40;102347.94;;;8.19;100.00
76694;BME280;69667;52.136;5.424;2024-02-04T05:39:13;102338.91;;;8.20;100.00
76694;BME280;69667;52.136;5.424;2024-02-04T05:41:41;102326.38;;;8.21;100.00
76694;BME280;69667;52.136;5.424;2024-02-04T05:44:10;102320.09;;;8.20;100.00
76694;BME280;69667;52.136;5.424;2024-02-04T05:46:38;102309.34;;;8.20;100.00
76694;BME280;69667;52.136;5.424;2024-02-04T05:49:07;102314.72;;;8.20;100.00
76694;BME280;69667;52.136;5.424;2024-02-04T05:51:39;102322.72;;;8.22;100.00
76694;BME280;69667;52.136;5.424;2024-02-04T05:54:08;102326.28;;;8.22;100.00
76694;BME280;69667;52.136;5.424;2024-02-04T05:56:37;102332.53;;;8.24;100.00
76694;BME280;69667;52.136;5.424;2024-02-04T05:59:05;102328.94;;;8.24;100.00
76694;BME280;69667;52.136;5.424;2024-02-04T06:01:33;102324.53;;;8.21;100.00
76694;BME280;69667;52.136;5.424;2024-02-04T06:04:02;102319.22;;;8.20;100.00
76694;BME280;69667;52.136;5.424;2024-02-04T06:06:31;102312.16;;;8.17;100.00
76694;BME280;69667;52.136;5.424;2024-02-04T06:09:00;102293.34;;;8.17;100.00
76694;BME280;69667;52.136;5.424;2024-02-04T06:11:29;102289.75;;;8.17;100.00
76694;BME280;69667;52.136;5.424;2024-02-04T06:13:57;102288.94;;;8.15;100.00
76694;BME280;69667;52.136;5.424;2024-02-04T06:16:25;102295.22;;;8.15;100.00
76694;BME280;69667;52.136;5.424;2024-02-04T06:18:54;102299.69;;;8.15;100.00
76694;BME280;69667;52.136;5.424;2024-02-04T06:21:24;102286.19;;;8.16;100.00
76694;BME280;69667;52.136;5.424;2024-02-04T06:23:53;102284.31;;;8.18;100.00
76694;BME280;69667;52.136;5.424;2024-02-04T06:26:21;102286.94;;;8.20;100.00
76694;BME280;69667;52.136;5.424;2024-02-04T06:28:49;102281.56;;;8.20;100.00
76694;BME280;69667;52.136;5.424;2024-02-04T06:31:18;102292.25;;;8.21;100.00
76694;BME280;69667;52.136;5.424;2024-02-04T06:33:47;102279.69;;;8.22;100.00
76694;BME280;69667;52.136;5.424;2024-02-04T06:36:15;102267.97;;;8.24;100.00
76694;BME280;69667;52.136;5.424;2024-02-04T06:38:43;102271.44;;;8.26;100.00
76694;BME280;69667;52.136;5.424;2024-02-04T06:41:12;102281.22;;;8.29;100.00
76694;BME280;69667;52.136;5.424;2024-02-04T06:43:40;102290.09;;;8.31;100.00
76694;BME280;69667;52.136;5.424;2024-02-04T06:46:08;102288.25;;;8.31;100.00
76694;BME280;69667;52.136;5.424;2024-02-04T06:48:36;102272.88;;;8.35;100.00
76694;BME280;69667;52.136;5.424;2024-02-04T06:51:05;102278.09;;;8.38;100.00
76694;BME280;69667;52.136;5.424;2024-02-04T06:53:33;102272.69;;;8.39;100.00
76694;BME280;69667;52.136;5.424;2024-02-04T06:56:01;102269.03;;;8.40;100.00
76694;BME280;69667;52.136;5.424;2024-02-04T06:58:30;102269.78;;;8.44;100.00
76694;BME280;69667;52.136;5.424;2024-02-04T07:00:58;102284.06;;;8.46;100.00
76694;BME280;69667;52.136;5.424;2024-02-04T07:03:26;102280.34;;;8.48;100.00
76694;BME280;69667;52.136;5.424;2024-02-04T07:05:58;102271.28;;;8.51;100.00
76694;BME280;69667;52.136;5.424;2024-02-04T07:08:26;102279.28;;;8.52;100.00
76694;BME280;69667;52.136;5.424;2024-02-04T07:10:55;102269.38;;;8.53;100.00
76694;BME280;69667;52.136;5.424;2024-02-04T07:13:26;102255.00;;;8.54;100.00
76694;BME280;69667;52.136;5.424;2024-02-04T07:15:54;102258.50;;;8.56;100.00
76694;BME280;69667;52.136;5.424;2024-02-04T07:18:23;102261.03;;;8.59;100.00
76694;BME280;69667;52.136;5.424;2024-02-04T07:20:52;102252.97;;;8.59;100.00
76694;BME280;69667;52.136;5.424;2024-02-04T07:23:20;102268.16;;;8.60;100.00
76694;BME280;69667;52.136;5.424;2024-02-04T07:25:49;102249.31;;;8.60;100.00
76694;BME280;69667;52.136;5.424;2024-02-04T07:28:17;102255.38;;;8.65;100.00
76694;BME280;69667;52.136;5.424;2024-02-04T07:30:45;102253.44;;;8.68;100.00
76694;BME280;69667;52.136;5.424;2024-02-04T07:33:14;102251.41;;;8.73;100.00
76694;BME280;69667;52.136;5.424;2024-02-04T07:35:42;102248.50;;;8.78;100.00
76694;BME280;69667;52.136;5.424;2024-02-04T07:38:11;102260.94;;;8.80;100.00
76694;BME280;69667;52.136;5.424;2024-02-04T07:40:39;102267.22;;;8.81;100.00
76694;BME280;69667;52.136;5.424;2024-02-04T07:43:07;102266.25;;;8.82;100.00
76694;BME280;69667;52.136;5.424;2024-02-04T07:45:35;102270.69;;;8.83;100.00
76694;BME280;69667;52.136;5.424;2024-02-04T07:48:04;102274.13;;;8.86;100.00
76694;BME280;69667;52.136;5.424;2024-02-04T07:50:32;102276.72;;;8.89;100.00
76694;BME280;69667;52.136;5.424;2024-02-04T07:53:00;102272.09;;;8.91;100.00
76694;BME280;69667;52.136;5.424;2024-02-04T07:55:29;102259.53;;;8.92;100.00
76694;BME280;69667;52.136;5.424;2024-02-04T07:57:57;102266.53;;;8.96;100.00
76694;BME280;69667;52.136;5.424;2024-02-04T08:00:25;102254.94;;;8.94;100.00
76694;BME280;69667;52.136;5.424;2024-02-04T08:02:54;102261.22;;;8.94;100.00
76694;BME280;69667;52.136;5.424;2024-02-04T08:05:23;102262.13;;;8.93;100.00
76694;BME280;69667;52.136;5.424;2024-02-04T08:07:51;102261.31;;;8.91;100.00
76694;BME280;69667;52.136;5.424;2024-02-04T08:10:19;102261.47;;;8.88;100.00
76694;BME280;69667;52.136;5.424;2024-02-04T08:12:48;102259.75;;;8.87;100.00
76694;BME280;69667;52.136;5.424;2024-02-04T08:15:18;102257.97;;;8.86;100.00
76694;BME280;69667;52.136;5.424;2024-02-04T08:17:47;102252.59;;;8.86;100.00
76694;BME280;69667;52.136;5.424;2024-02-04T08:20:15;102258.84;;;8.87;100.00
76694;BME280;69667;52.136;5.424;2024-02-04T08:22:43;102249.81;;;8.88;100.00
76694;BME280;69667;52.136;5.424;2024-02-04T08:25:13;102242.69;;;8.87;100.00
76694;BME280;69667;52.136;5.424;2024-02-04T08:27:42;102246.28;;;8.87;100.00
76694;BME280;69667;52.136;5.424;2024-02-04T08:30:10;102251.50;;;8.90;100.00
76694;BME280;69667;52.136;5.424;2024-02-04T08:32:39;102250.63;;;8.90;100.00
76694;BME280;69667;52.136;5.424;2024-02-04T08:35:07;102249.72;;;8.91;100.00
76694;BME280;69667;52.136;5.424;2024-02-04T08:37:35;102247.88;;;8.91;100.00
76694;BME280;69667;52.136;5.424;2024-02-04T08:40:06;102245.16;;;8.91;100.00
76694;BME280;69667;52.136;5.424;2024-02-04T08:42:35;102245.25;;;8.90;100.00
76694;BME280;69667;52.136;5.424;2024-02-04T08:45:04;102238.06;;;8.90;100.00
76694;BME280;69667;52.136;5.424;2024-02-04T08:47:32;102237.16;;;8.90;100.00
76694;BME280;69667;52.136;5.424;2024-02-04T08:50:01;102239.00;;;8.89;100.00
76694;BME280;69667;52.136;5.424;2024-02-04T08:52:29;102223.84;;;8.87;100.00
76694;BME280;69667;52.136;5.424;2024-02-04T08:54:58;102222.84;;;8.89;100.00
76694;BME280;69667;52.136;5.424;2024-02-04T08:57:27;102228.91;;;8.94;100.00
76694;BME280;69667;52.136;5.424;2024-02-04T08:59:56;102229.59;;;8.98;100.00
76694;BME280;69667;52.136;5.424;2024-02-04T09:02:24;102219.56;;;9.02;100.00
76694;BME280;69667;52.136;5.424;2024-02-04T09:04:52;102227.50;;;9.05;100.00
76694;BME280;69667;52.136;5.424;2024-02-04T09:07:21;102224.69;;;9.08;100.00
76694;BME280;69667;52.136;5.424;2024-02-04T09:09:50;102213.03;;;9.07;100.00
76694;BME280;69667;52.136;5.424;2024-02-04T09:12:19;102211.94;;;9.11;100.00
76694;BME280;69667;52.136;5.424;2024-02-04T09:14:47;102213.53;;;9.15;100.00
76694;BME280;69667;52.136;5.424;2024-02-04T09:17:15;102219.56;;;9.20;100.00
76694;BME280;69667;52.136;5.424;2024-02-04T09:19:44;102218.56;;;9.23;100.00
76694;BME280;69667;52.136;5.424;2024-02-04T09:22:12;102224.63;;;9.28;100.00
76694;BME280;69667;52.136;5.424;2024-02-04T09:24:40;102239.59;;;9.33;100.00
76694;BME280;69667;52.136;5.424;2024-02-04T09:27:09;102241.28;;;9.36;100.00
76694;BME280;69667;52.136;5.424;2024-02-04T09:29:37;102237.47;;;9.40;100.00
76694;BME280;69667;52.136;5.424;2024-02-04T09:32:06;102246.28;;;9.43;100.00
76694;BME280;69667;52.136;5.424;2024-02-04T09:34:35;102244.16;;;9.50;100.00
76694;BME280;69667;52.136;5.424;2024-02-04T09:37:04;102249.28;;;9.56;100.00
76694;BME280;69667;52.136;5.424;2024-02-04T09:39:32;102242.72;;;9.61;100.00
76694;BME280;69667;52.136;5.424;2024-02-04T09:42:01;102233.44;;;9.67;100.00
76694;BME280;69667;52.136;5.424;2024-02-04T09:44:29;102239.47;;;9.72;100.00
76694;BME280;69667;52.136;5.424;2024-02-04T09:46:59;102232.13;;;9.75;100.00
76694;BME280;69667;52.136;5.424;2024-02-04T09:49:29;102231.09;;;9.78;100.00
76694;BME280;69667;52.136;5.424;2024-02-04T09:51:59;102229.19;;;9.80;100.00
76694;BME280;69667;52.136;5.424;2024-02-04T09:54:35;102229.09;;;9.81;100.00
76694;BME280;69667;52.136;5.424;2024-02-04T09:57:05;102231.59;;;9.86;100.00
76694;BME280;69667;52.136;5.424;2024-02-04T09:59:33;102231.50;;;9.87;100.00
76694;BME280;69667;52.136;5.424;2024-02-04T10:02:06;102229.63;;;9.89;100.00
76694;BME280;69667;52.136;5.424;2024-02-04T10:04:35;102234.84;;;9.92;100.00
76694;BME280;69667;52.136;5.424;2024-02-04T10:07:04;102247.28;;;9.95;100.00
76694;BME280;69667;52.136;5.424;2024-02-04T10:09:33;102234.78;;;9.94;100.00
76694;BME280;69667;52.136;5.424;2024-02-04T10:12:01;102239.28;;;9.93;100.00
76694;BME280;69667;52.136;5.424;2024-02-04T10:14:30;102236.50;;;9.95;100.00
76694;BME280;69667;52.136;5.424;2024-02-04T10:16:58;102230.19;;;9.96;100.00
76694;BME280;69667;52.136;5.424;2024-02-04T10:19:27;102239.13;;;9.96;100.00
76694;BME280;69667;52.136;5.424;2024-02-04T10:22:03;102233.72;;;9.96;100.00
76694;BME280;69667;52.136;5.424;2024-02-04T10:24:31;102234.69;;;9.95;100.00
76694;BME280;69667;52.136;5.424;2024-02-04T10:27:00;102232.88;;;9.96;100.00
76694;BME280;69667;52.136;5.424;2024-02-04T10:29:28;102239.00;;;9.99;100.00
76694;BME280;69667;52.136;5.424;2024-02-04T10:31:57;102243.44;;;10.00;100.00
76694;BME280;69667;52.136;5.424;2024-02-04T10:34:28;102228.97;;;10.01;100.00
76694;BME280;69667;52.136;5.424;2024-02-04T10:36:57;102237.03;;;10.03;100.00
76694;BME280;69667;52.136;5.424;2024-02-04T10:39:25;102231.38;;;10.07;100.00
76694;BME280;69667;52.136;5.424;2024-02-04T10:41:56;102240.41;;;10.06;100.00
76694;BME280;69667;52.136;5.424;2024-02-04T10:44:35;102243.09;;;10.06;100.00
76694;BME280;69667;52.136;5.424;2024-02-04T10:47:06;102246.94;;;10.02;100.00
76694;BME280;69667;52.136;5.424;2024-02-04T10:49:37;102245.97;;;10.03;100.00
76694;BME280;69667;52.136;5.424;2024-02-04T10:52:07;102242.25;;;10.06;100.00
76694;BME280;69667;52.136;5.424;2024-02-04T10:54:36;102239.47;;;10.07;100.00
76694;BME280;69667;52.136;5.424;2024-02-04T10:57:12;102248.31;;;10.11;100.00
76694;BME280;69667;52.136;5.424;2024-02-04T10:59:47;102236.56;;;10.12;100.00
76694;BME280;69667;52.136;5.424;2024-02-04T11:02:16;102242.44;;;10.20;100.00
76694;BME280;69667;52.136;5.424;2024-02-04T11:04:45;102234.91;;;10.27;100.00
76694;BME280;69667;52.136;5.424;2024-02-04T11:07:17;102257.00;;;10.35;100.00
76694;BME280;69667;52.136;5.424;2024-02-04T11:09:48;102255.84;;;10.39;100.00
76694;BME280;69667;52.136;5.424;2024-02-04T11:12:18;102248.09;;;10.33;100.00
76694;BME280;69667;52.136;5.424;2024-02-04T11:14:53;102238.31;;;10.30;100.00
76694;BME280;69667;52.136;5.424;2024-02-04T11:17:36;102246.56;;;10.27;100.00
76694;BME280;69667;52.136;5.424;2024-02-04T11:20:15;102244.84;;;10.26;100.00
76694;BME280;69667;52.136;5.424;2024-02-04T11:23:17;102245.78;;;10.25;100.00
76694;BME280;69667;52.136;5.424;2024-02-04T11:25:54;102238.41;;;10.29;100.00
76694;BME280;69667;52.136;5.424;2024-02-04T11:28:26;102243.88;;;10.27;100.00
76694;BME280;69667;52.136;5.424;2024-02-04T11:30:55;102242.31;;;10.23;100.00
76694;BME280;69667;52.136;5.424;2024-02-04T11:33:24;102244.19;;;10.21;100.00
76694;BME280;69667;52.136;5.424;2024-02-04T11:36:05;102224.34;;;10.22;100.00
76694;BME280;69667;52.136;5.424;2024-02-04T11:38:37;102226.97;;;10.23;100.00
76694;BME280;69667;52.136;5.424;2024-02-04T11:41:06;102202.38;;;10.30;100.00
76694;BME280;69667;52.136;5.424;2024-02-04T11:43:38;102204.19;;;10.29;100.00
76694;BME280;69667;52.136;5.424;2024-02-04T11:46:16;102208.41;;;10.35;100.00
76694;BME280;69667;52.136;5.424;2024-02-04T11:48:53;102203.69;;;10.38;100.00
76694;BME280;69667;52.136;5.424;2024-02-04T11:51:23;102205.28;;;10.42;100.00
76694;BME280;69667;52.136;5.424;2024-02-04T11:53:52;102193.53;;;10.43;100.00
76694;BME280;69667;52.136;5.424;2024-02-04T11:56:23;102193.06;;;10.35;100.00
76694;BME280;69667;52.136;5.424;2024-02-04T11:58:53;102184.13;;;10.35;100.00
76694;BME280;69667;52.136;5.424;2024-02-04T12:01:23;102202.94;;;10.36;100.00
76694;BME280;69667;52.136;5.424;2024-02-04T12:03:52;102189.44;;;10.36;100.00
76694;BME280;69667;52.136;5.424;2024-02-04T12:06:21;102191.41;;;10.33;100.00
76694;BME280;69667;52.136;5.424;2024-02-04T12:08:49;102188.63;;;10.34;100.00
76694;BME280;69667;52.136;5.424;2024-02-04T12:11:18;102190.28;;;10.37;100.00
76694;BME280;69667;52.136;5.424;2024-02-04T12:13:46;102183.94;;;10.38;100.00
76694;BME280;69667;52.136;5.424;2024-02-04T12:16:15;102173.88;;;10.41;100.00
76694;BME280;69667;52.136;5.424;2024-02-04T12:18:50;102172.91;;;10.42;100.00
76694;BME280;69667;52.136;5.424;2024-02-04T12:21:19;102175.69;;;10.41;100.00
76694;BME280;69667;52.136;5.424;2024-02-04T12:23:48;102174.63;;;10.43;100.00
76694;BME280;69667;52.136;5.424;2024-02-04T12:26:16;102170.81;;;10.47;100.00
76694;BME280;69667;52.136;5.424;2024-02-04T12:28:44;102171.16;;;10.41;100.00
76694;BME280;69667;52.136;5.424;2024-02-04T12:31:20;102162.19;;;10.41;100.00
76694;BME280;69667;52.136;5.424;2024-02-04T12:33:55;102163.69;;;10.46;100.00
76694;BME280;69667;52.136;5.424;2024-02-04T12:36:32;102157.16;;;10.50;100.00
76694;BME280;69667;52.136;5.424;2024-02-04T12:39:02;102170.66;;;10.50;100.00
76694;BME280;69667;52.136;5.424;2024-02-04T12:41:33;102166.47;;;10.45;100.00
76694;BME280;69667;52.136;5.424;2024-02-04T12:44:02;102169.41;;;10.40;100.00
76694;BME280;69667;52.136;5.424;2024-02-04T12:46:33;102171.38;;;10.37;100.00
76694;BME280;69667;52.136;5.424;2024-02-04T12:49:02;102168.84;;;10.34;100.00
76694;BME280;69667;52.136;5.424;2024-02-04T12:51:33;102168.78;;;10.35;100.00
76694;BME280;69667;52.136;5.424;2024-02-04T12:54:11;102164.34;;;10.34;100.00
76694;BME280;69667;52.136;5.424;2024-02-04T12:59:12;102143.56;;;10.36;100.00
76694;BME280;69667;52.136;5.424;2024-02-04T13:02:02;102144.47;;;10.35;100.00
76694;BME280;69667;52.136;5.424;2024-02-04T13:08:08;102140.13;;;10.33;100.00
76694;BME280;69667;52.136;5.424;2024-02-04T13:10:36;102144.47;;;10.35;100.00